Bernard A — TCWN3 — position and weather

sailwx.info

Track history (hours):
 
Tides and Currents Weather Stations Pressure Air Temp Water Temp Dewpoint Dewpoint Depression Visibility Wind Speed Wind Dir Waves Ship Positions

Bernard A

Last reported at 2014-Sep-17 17:26 UTC. Time now 2014-Sep-17 17:42 UTC.
Position N 37°43' E 004°06'.

Length 184 m; draft 7.6 m.

Type: Cargo ship. MMSI: 271040008.

Date/timePositionNaut miles runAvg speedWind from/ knotsBaromVisibWave heightAir tempDewpointWater temp
2014-Sep-17 17:26N 37°43' E 004°06'1312.2
2014-Sep-17 16:21N 37°40' E 003°50'4812.4
2014-Sep-17 12:27N 37°28' E 002°51'3512.0
2014-Sep-17 09:32N 37°18' E 002°09'2712.4
2014-Sep-17 07:19N 37°11' E 001°35'911.9
2014-Sep-17 06:32N 37°08' E 001°24'1313.0
2014-Sep-17 05:33N 37°05' E 001°09'1313.5
2014-Sep-17 04:33N 37°02' E 000°52'1413.1
2014-Sep-17 03:30N 36°58' E 000°36'1212.5
2014-Sep-17 02:33N 36°54' E 000°22'1312.5
2014-Sep-17 01:33N 36°52' E 000°06'1312.4
2014-Sep-17 00:33N 36°48' W 000°09'1212.3
2014-Sep-16 23:33N 36°45' W 000°24'1312.5
2014-Sep-16 22:32N 36°42' W 000°39'1212.6
2014-Sep-16 21:33N 36°39' W 000°54'22710.7
2014-Sep-16 00:23N 35°54' W 005°30'0 0.0
2014-Sep-15 23:32N 35°54' W 005°30'  
2014-Sep-13 19:07N 35°54' W 005°36'813.8
2014-Sep-13 18:33N 35°53' W 005°46'1616.0
2014-Sep-13 17:33N 35°47' W 006°04'1615.5
2014-Sep-13 16:33N 35°34' W 006°15'45 1.1
2014-Sep-12 00:30N 35°59' W 005°29'9 9.9
2014-Sep-11 23:33N 36°01' W 005°18'172 9.6
2014-Sep-11 05:33N 35°58' W 001°46'57 9.3
2014-Sep-10 23:23N 35°43' W 000°37'1 0.5
2014-Sep-10 20:13N 35°43' W 000°39'0 0.0
2014-Sep-10 19:31N 35°43' W 000°39'20 1.0
2014-Sep-09 22:17N 36°01' W 000°29'12615.9
2014-Sep-09 14:23N 36°53' E 001°53'9413.0
2014-Sep-09 07:11N 37°24' E 003°44'812.9
2014-Sep-09 06:32N 37°26' E 003°54'1613.1
2014-Sep-09 05:19N 37°32' E 004°13'1113.6
2014-Sep-09 04:31N 37°35' E 004°26'1513.8
2014-Sep-09 03:24N 37°40' E 004°45'1513.7
2014-Sep-09 02:19N 37°45' E 005°03'1013.4
2014-Sep-09 01:33N 37°48' E 005°15'1413.5
2014-Sep-09 00:33N 37°52' E 005°31'1513.9
2014-Sep-08 23:26N 37°57' E 005°50'1413.9
2014-Sep-08 22:27N 38°01' E 006°06'1313.9
2014-Sep-08 21:33N 38°05' E 006°21'14412.6
2014-Sep-08 10:05N 39°10' E 009°06'3 6.3
2014-Sep-08 09:32N 39°13' E 009°04'0 0.0
2014-Sep-08 08:32N 39°13' E 009°04'0 0.0
2014-Sep-08 07:32N 39°13' E 009°04'0 0.0
2014-Sep-08 06:32N 39°13' E 009°04'0 0.0
2014-Sep-08 05:32N 39°13' E 009°04'0 0.0
2014-Sep-08 04:32N 39°13' E 009°04'0 0.0
2014-Sep-08 03:32N 39°13' E 009°04'0 0.0
2014-Sep-08 02:32N 39°13' E 009°04'0 0.0
2014-Sep-08 01:32N 39°13' E 009°04'0 0.0
2014-Sep-08 00:32N 39°13' E 009°04'0 0.0
2014-Sep-07 23:32N 39°13' E 009°04'7 3.4
2014-Sep-07 21:34N 39°07' E 009°07'1414.2
2014-Sep-07 20:33N 38°59' E 009°22'1815.0
2014-Sep-07 19:20N 38°49' E 009°42'  
Track history (hours):
 
Tides and Currents Weather Stations Pressure Air Temp Water Temp Dewpoint Dewpoint Depression Visibility Wind Speed Wind Dir Waves Ship Positions

Bernard A

Last reported at 2014-Sep-17 17:26 UTC. Time now 2014-Sep-17 17:42 UTC.
Position N 37°43' E 004°06'.

Length 184 m; draft 7.6 m.

Type: Cargo ship. MMSI: 271040008.

Date/timePositionNaut miles runAvg speedWind from/ knotsBaromVisibWave heightAir tempDewpointWater temp
2014-Sep-17 17:26N 37°43' E 004°06'1312.2
2014-Sep-17 16:21N 37°40' E 003°50'4812.4
2014-Sep-17 12:27N 37°28' E 002°51'3512.0
2014-Sep-17 09:32N 37°18' E 002°09'2712.4
2014-Sep-17 07:19N 37°11' E 001°35'911.9
2014-Sep-17 06:32N 37°08' E 001°24'1313.0
2014-Sep-17 05:33N 37°05' E 001°09'1313.5
2014-Sep-17 04:33N 37°02' E 000°52'1413.1
2014-Sep-17 03:30N 36°58' E 000°36'1212.5
2014-Sep-17 02:33N 36°54' E 000°22'1312.5
2014-Sep-17 01:33N 36°52' E 000°06'1312.4
2014-Sep-17 00:33N 36°48' W 000°09'1212.3
2014-Sep-16 23:33N 36°45' W 000°24'1312.5
2014-Sep-16 22:32N 36°42' W 000°39'1212.6
2014-Sep-16 21:33N 36°39' W 000°54'22710.7
2014-Sep-16 00:23N 35°54' W 005°30'0 0.0
2014-Sep-15 23:32N 35°54' W 005°30'  
2014-Sep-13 19:07N 35°54' W 005°36'813.8
2014-Sep-13 18:33N 35°53' W 005°46'1616.0
2014-Sep-13 17:33N 35°47' W 006°04'1615.5
2014-Sep-13 16:33N 35°34' W 006°15'45 1.1
2014-Sep-12 00:30N 35°59' W 005°29'9 9.9
2014-Sep-11 23:33N 36°01' W 005°18'172 9.6
2014-Sep-11 05:33N 35°58' W 001°46'57 9.3
2014-Sep-10 23:23N 35°43' W 000°37'1 0.5
2014-Sep-10 20:13N 35°43' W 000°39'0 0.0
2014-Sep-10 19:31N 35°43' W 000°39'20 1.0
2014-Sep-09 22:17N 36°01' W 000°29'12615.9
2014-Sep-09 14:23N 36°53' E 001°53'9413.0
2014-Sep-09 07:11N 37°24' E 003°44'812.9
2014-Sep-09 06:32N 37°26' E 003°54'1613.1
2014-Sep-09 05:19N 37°32' E 004°13'1113.6
2014-Sep-09 04:31N 37°35' E 004°26'1513.8
2014-Sep-09 03:24N 37°40' E 004°45'1513.7
2014-Sep-09 02:19N 37°45' E 005°03'1013.4
2014-Sep-09 01:33N 37°48' E 005°15'1413.5
2014-Sep-09 00:33N 37°52' E 005°31'1513.9
2014-Sep-08 23:26N 37°57' E 005°50'1413.9
2014-Sep-08 22:27N 38°01' E 006°06'1313.9
2014-Sep-08 21:33N 38°05' E 006°21'14412.6
2014-Sep-08 10:05N 39°10' E 009°06'3 6.3
2014-Sep-08 09:32N 39°13' E 009°04'0 0.0
2014-Sep-08 08:32N 39°13' E 009°04'0 0.0
2014-Sep-08 07:32N 39°13' E 009°04'0 0.0
2014-Sep-08 06:32N 39°13' E 009°04'0 0.0
2014-Sep-08 05:32N 39°13' E 009°04'0 0.0
2014-Sep-08 04:32N 39°13' E 009°04'0 0.0
2014-Sep-08 03:32N 39°13' E 009°04'0 0.0
2014-Sep-08 02:32N 39°13' E 009°04'0 0.0
2014-Sep-08 01:32N 39°13' E 009°04'0 0.0
2014-Sep-08 00:32N 39°13' E 009°04'0 0.0
2014-Sep-07 23:32N 39°13' E 009°04'7 3.4
2014-Sep-07 21:34N 39°07' E 009°07'1414.2
2014-Sep-07 20:33N 38°59' E 009°22'1815.0
2014-Sep-07 19:20N 38°49' E 009°42'  

Dump ship's entire track history